Weather at One Montgomery Plaza Heliport [CLOSED]

Public forecast

Using degrees Fahrenheit for public forecast. Weather courtesy of forecast.io.

Closest aviation weather report (METAR) to One Montgomery Plaza Heliport

Closest report is Wings Field, 3.9 nm (7.2 km) ENE. Retrieved 2022/01/22 20:55 UTC (15 minutes ago):

KLOM 222055Z AUTO 25003KT 10SM CLR M02/M17 A3023 RMK AO2 T10191168

Closest aviation forecast (TAF) to One Montgomery Plaza Heliport

Closest forecast is Philadelphia International Airport, 15.4 nm (28.5 km) SSE. Retrieved 2022/01/22 18:37 UTC (3 hours ago):

TAF KPHL 221733Z 2218/2324 VRB03KT P6SM SCT200 FM230600 25005KT P6SM SCT200 FM231400 26009KT P6SM SCT120 BKN200 FM231800 26009KT P6SM SCT035 OVC070 FM232200 27004KT P6SM -SN SCT025 OVC050